This demonstration page uses our WeatherBlox Daily Observations layout. Learn more.

38.89511, -77.03637

Hourly Observations for July 20, 2017

Temp ( °F °C ) Dew Point ( °F °C ) Humidity (%) Winds ( mph kmh ) Pressure ( in mb ) Visibility ( mi km ) Precip ( " mm )
12:52 am 00:52 Mostly Cloudy 83 28.3 76 24.4 79 79 S 8 13 30.03 1017 10 16.09344 0 0
1:52 am 01:52 Mostly Cloudy 82 27.8 76 24.4 82 82 S 6 9 30 1016 10 16.09344 0 0
2:52 am 02:52 Mostly Cloudy 81 27.2 76 24.4 85 85 SSW 5 7 30 1016 10 16.09344 0 0
3:52 am 03:52 Partly Cloudy 81 27.2 75 23.9 82 82 S 5 7 29.97 1015 10 16.09344 0 0
4:52 am 04:52 Clear 80 26.7 74 23.3 82 82 SW 6 9 29.97 1015 10 16.09344 0 0
5:52 am 05:52 Mostly Cloudy 79 26.1 74 23.3 85 85 SW 5 7 30 1016 10 16.09344 0 0
6:52 am 06:52 Mostly Cloudy 81 27.2 74 23.3 79 79 Calm 30 1016 10 16.09344 0 0
7:52 am 07:52 Mostly Cloudy 83 28.3 74 23.3 74 74 Calm 30 1016 10 16.09344 0 0
8:52 am 08:52 Mostly Cloudy 87 30.6 74 23.3 65 65 NNE 7 11 30 1016 10 16.09344 0 0
9:52 am 09:52 Mostly Cloudy 91 32.8 73 22.8 56 56 N 7 11 30.03 1017 10 16.09344 0 0
10:52 am 10:52 Mostly Cloudy 92 33.3 72 22.2 52 52 WNW 8 13 30 1016 10 16.09344 0 0
11:52 am 11:52 Mostly Cloudy 94 34.4 72 22.2 49 49 N 6 9 30 1016 10 16.09344 0 0
12:52 pm 12:52 Partly Cloudy 95 35 70 21.1 44 44 N 7 11 29.97 1015 10 16.09344 0 0
1:52 pm 13:52 Partly Cloudy 97 36.1 68 20 39 39 WSW 8 13 29.97 1015 10 16.09344 0 0
2:52 pm 14:52 Mostly Cloudy 96 35.6 68 20 40 40 N 7 11 29.94 1014 10 16.09344 0 0
3:52 pm 15:52 Mostly Cloudy 96 35.6 68 20 40 40 W 10 17 29.94 1014 10 16.09344 0 0
4:52 pm 16:52 Mostly Cloudy 97 36.1 68 20 39 39 W 10 17 29.91 1013 10 16.09344 0 0
5:52 pm 17:52 Mostly Cloudy 97 36.1 64 17.8 34 34 SW 9 15 29.88 1012 10 16.09344 0 0
6:52 pm 18:52 Mostly Cloudy 95 35 67 19.4 40 40 SW 10 17 29.88 1012 10 16.09344 0 0
7:52 pm 19:52 Mostly Cloudy 91 32.8 77 25 64 64 S 8 13 29.88 1012 10 16.09344 0 0
8:52 pm 20:52 Mostly Cloudy 89 31.7 76 24.4 65 65 S 8 13 29.91 1013 10 16.09344 0 0
9:52 pm 21:52 Mostly Cloudy 88 31.1 77 25 70 70 S 9 15 29.91 1013 10 16.09344 0 0
10:52 pm 22:52 Mostly Cloudy 87 30.6 76 24.4 70 70 SSW 7 11 29.91 1013 10 16.09344 0 0
11:52 pm 23:52 Cloudy 86 30 78 25.6 77 77 S 6 9 29.91 1013 10 16.09344 0 0

Powered by AerisWeather